Metar Cercanos

 

LEPA - Palma De Mallorc, Spain
Distance from station: ONO 38km
Actualización: Fri, 14-May-2021 2:00pm CEST
Few Clouds
Few Clouds
 Viento del NO
Viento: NO 24 km/h
Temperatura: 20°C
Rocío: 5°C
Humedad: 38%
Barómetro: 1015 hPa
Clouds: Few Clouds
Visibility: 10 km
Cloud details: Few Clouds 701 m
2021/05/14 12:00 LEPA 141200Z 32013KT 290V350 9999 FEW023 20/05 Q1015 NOSIG
LEMH - Mahon/Menorca Is, Spain
Distance from station: ENE 105km
Actualización: Fri, 14-May-2021 2:00pm CEST
Few Clouds
Few Clouds
 Viento del NNE
Viento: NNE 31 km/h
Temperatura: 19°C
Rocío: 7°C
Humedad: 46%
Barómetro: 1014 hPa
Clouds: Few Clouds
Visibility: 10 km
Cloud details: Few Clouds 610 m
2021/05/14 12:00 LEMH 141200Z 03017KT 360V060 9999 FEW020 19/07 Q1014
 
LEIB - Ibiza/Es Codola, Spain
Distance from station: OSO 165km
Actualización: Fri, 14-May-2021 2:00pm CEST
Few Clouds
Few Clouds
 Viento del NNO
Viento: NNO 28 km/h
Temperatura: 23°C
Rocío: 4°C
Humedad: 29%
Barómetro: 1016 hPa
Clouds: Few Clouds
Visibility: 10 km
Cloud details: Few Clouds 1067 m
2021/05/14 12:00 LEIB 141200Z 34015KT 310V030 9999 FEW035 23/04 Q1016 NOSIG
LEBL - Barcelona Airpor, Spain
Distance from station: NNO 225km
Actualización: Fri, 14-May-2021 2:00pm CEST
Few Clouds
Few Clouds
 Viento del S
Viento: S 20 km/h
Temperatura: 18°C
Rocío: 10°C
Humedad: 60%
Barómetro: 1014 hPa
Clouds: Few Clouds
Visibility: 10 km
Cloud details: Few Clouds 1676 m
2021/05/14 12:00 LEBL 141200Z 17011KT 9999 FEW055 18/10 Q1014 NOSIG
 
LEVC - Valencia (civ/Mi, Spain
Distance from station: NO 188km
Actualización: Fri, 14-May-2021 2:00pm CEST
Few Clouds
Few Clouds
 Viento del SE
Viento: SE 15 km/h
Temperatura: 24°C
Rocío: 10°C
Humedad: 41%
Barómetro: 1015 hPa
Clouds: Few Clouds
Visibility: 10 km
Cloud details: Few Clouds 1219 m
2021/05/14 12:00 LEVC 141200Z 13008KT 070V180 9999 FEW040 24/10 Q1015 NOSIG
LEGE - Gerona/Costa Bra, Spain
Distance from station: N 276km
Actualización: Fri, 14-May-2021 2:16pm CEST
Nearby thunderstorm, Parcialmente nuboso
Nearby thunderstorm, Parcialmente nuboso
 Viento del S
Viento: S 19 km/h
Temperatura: 16°C
Rocío: 12°C
Humedad: 77%
Barómetro: 1013 hPa
Resumen: Nearby Thunderstorm
Clouds: Parcialmente nuboso
Visibility: 10 km
Cloud details: Few Clouds 488 m
Few Clouds 671 m
Parcialmente nuboso 975 m
2021/05/14 12:16 LEGE 141216Z 18010KT 150V210 9999 VCTS FEW016 FEW022CB SCT032 16/12 Q1013 RETSRA
 
LEAL - Alicante/El Alte, Spain
Distance from station: OSO 344km
Actualización: Fri, 14-May-2021 2:00pm CEST
Despejado
Despejado
 Viento del ONO
Viento: ONO 24 km/h
Temperatura: 26°C
Rocío: 7°C
Humedad: 30%
Barómetro: 1015 hPa
Resumen: Despejado
Visibility: greater than 10 km
2021/05/14 12:00 LEAL 141200Z 29013KT 250V330 CAVOK 26/07 Q1015 NOSIG
LEAM - Almeria Airport, Spain
Distance from station: SSO 56km
Actualización: Fri, 14-May-2021 2:00pm CEST
Despejado
Despejado
 Viento del SO
Viento: SO 13 km/h
Temperatura: 21°C
Rocío: 15°C
Humedad: 69%
Barómetro: 1016 hPa
Resumen: Despejado
Visibility: greater than 10 km
2021/05/14 12:00 LEAM 141200Z 22007KT 190V260 CAVOK 21/15 Q1016
 
LEZG - Zaragoza (mil/Ci, Spain
Distance from station: NO 431km
Actualización: Fri, 14-May-2021 2:00pm CEST
Few Clouds
Few Clouds
 Viento del NO
Viento: NO 30 km/h
Temperatura: 17°C
Rocío: 5°C
Humedad: 45%
Barómetro: 1017 hPa
Clouds: Few Clouds
Visibility: 10 km
Cloud details: Few Clouds 1372 m
2021/05/14 12:00 LEZG 141200Z 32016KT 290V350 9999 FEW045 17/05 Q1017
LEMD - Madrid/Barajas, Spain
Distance from station: ONO 234km
Actualización: Fri, 14-May-2021 2:00pm CEST
Few Clouds
Few Clouds
 Viento del S
Viento: S 6 km/h
Temperatura: 20°C
Rocío: 5°C
Humedad: 38%
Barómetro: 1018 hPa
Clouds: Few Clouds
Visibility: 10 km
Cloud details: Few Clouds 1219 m
2021/05/14 12:00 LEMD 141200Z 18003KT 9999 FEW040 20/05 Q1018 NOSIG
 
LEGR - Granada Airport, Spain
Distance from station: OSO 62km
Actualización: Fri, 14-May-2021 2:00pm CEST
Despejado
Despejado
 Viento del calm
Viento: Calma
Temperatura: 24°C
Rocío: 6°C
Humedad: 31%
Barómetro: 1018 hPa
Resumen: Despejado
Visibility: greater than 10 km
2021/05/14 12:00 LEGR 141200Z 00000KT CAVOK 24/06 Q1018
LEMG - Malaga (civ/Mil), Spain
Distance from station: OSO 227km
Actualización: Fri, 14-May-2021 2:00pm CEST
Despejado
Despejado
 Viento del ONO
Viento: ONO 22 km/h
Temperatura: 27°C
Rocío: 10°C
Humedad: 34%
Barómetro: 1015 hPa
Resumen: Despejado
Visibility: greater than 10 km
2021/05/14 12:00 LEMG 141200Z 29012KT 250V320 CAVOK 27/10 Q1015 NOSIG
 
LEZL - Sevilla (civ/Mil, Spain
Distance from station: S 318km
Actualización: Fri, 14-May-2021 2:00pm CEST
Despejado
Despejado
 Viento del ONO
Viento: ONO 9 km/h
Temperatura: 22°C
Rocío: 10°C
Humedad: 47%
Barómetro: 1018 hPa
Resumen: Despejado
Visibility: greater than 10 km
2021/05/14 12:00 LEZL 141200Z 29005KT 210V010 CAVOK 22/10 Q1018 NOSIG
LEVT - Vitoria, Spain
Distance from station: NO 226km
Actualización: Fri, 14-May-2021 2:00pm CEST
Muy nuboso
Muy nuboso
 Viento del NNO
Viento: NNO 11 km/h
Temperatura: 14°C
Rocío: 6°C
Humedad: 59%
Barómetro: 1019 hPa
Clouds: Muy nuboso
Visibility: 10 km
Cloud details: Few Clouds 1219 m
Muy nuboso 1524 m
2021/05/14 12:00 LEVT 141200Z 34006KT 270V060 9999 FEW040 BKN050 14/06 Q1019
 
LEBB - Bilbao/Sondica, Spain
Distance from station: NNO 235km
Actualización: Fri, 14-May-2021 2:00pm CEST
Muy nuboso
Muy nuboso
 Viento del NO
Viento: NO 9 km/h
Temperatura: 16°C
Rocío: 9°C
Humedad: 63%
Barómetro: 1019 hPa
Clouds: Muy nuboso
Visibility: 10 km
Cloud details: Few Clouds 1158 m
Muy nuboso 1707 m
2021/05/14 12:00 LEBB 141200Z 32005KT 250V030 9999 FEW038 BKN056 16/09 Q1019 NOSIG
LESO - San Sebastian/Fu, Spain
Distance from station: N 231km
Actualización: Fri, 14-May-2021 2:00pm CEST
Parcialmente nuboso
Parcialmente nuboso
 Viento del ONO
Viento: ONO 15 km/h
Temperatura: 15°C
Rocío: 10°C
Humedad: 72%
Barómetro: 1019 hPa
Clouds: Parcialmente nuboso
Visibility: 10 km
Cloud details: Parcialmente nuboso 1067 m
2021/05/14 12:00 LESO 141200Z 30008KT 260V350 9999 SCT035 15/10 Q1019
 
LEVD - Valladolid(Mil/C, Spain
Distance from station: ONO 239km
Actualización: Fri, 14-May-2021 2:00pm CEST
Parcialmente nuboso
Parcialmente nuboso
 Viento del OSO
Viento: OSO 9 km/h
Temperatura: 15°C
Rocío: 7°C
Humedad: 59%
Barómetro: 1019 hPa
Clouds: Parcialmente nuboso
Visibility: 10 km
Cloud details: Parcialmente nuboso 1280 m
2021/05/14 12:00 LEVD 141200Z 24005KT 160V310 9999 SCT042 15/07 Q1019
LESA - Salamanca (civ/M, Spain
Distance from station: ONO 349km
Actualización: Fri, 14-May-2021 2:00pm CEST
Despejado
Despejado
 Viento del O
Viento: O 15 km/h
Temperatura: 16°C
Rocío: 4°C
Humedad: 45%
Barómetro: 1020 hPa
Resumen: Despejado
Visibility: greater than 10 km
2021/05/14 12:00 LESA 141200Z 28008KT 230V320 CAVOK 16/04 Q1020
 
LEXJ - Santander/Paraya, Spain
Distance from station: NNO 247km
Actualización: Fri, 14-May-2021 2:00pm CEST
Few Clouds
Few Clouds
 Viento del ONO
Viento: ONO 11 km/h
Temperatura: 16°C
Rocío: 8°C
Humedad: 59%
Barómetro: 1019 hPa
Clouds: Few Clouds
Visibility: 10 km
Cloud details: Few Clouds 1097 m
2021/05/14 12:00 LEXJ 141200Z 30006KT 260V010 9999 FEW036 16/08 Q1019
LEAS - Asturias/Aviles, Spain
Distance from station: NO 214km
Actualización: Fri, 14-May-2021 2:00pm CEST
Few Clouds
Few Clouds
 Viento del NNO
Viento: NNO 13 km/h
Temperatura: 14°C
Rocío: 8°C
Humedad: 67%
Barómetro: 1018 hPa
Clouds: Few Clouds
Visibility: 10 km
Cloud details: Few Clouds 914 m
2021/05/14 12:00 LEAS 141200Z 33007KT 280V060 9999 FEW030 14/08 Q1018 NOSIG
 
LECO - La Coruna/Alvedr, Spain
Distance from station: ONO 222km
Actualización: Fri, 14-May-2021 2:00pm CEST
Parcialmente nuboso
Parcialmente nuboso
 Viento del SSO
Viento: SSO 24 km/h
Temperatura: 16°C
Rocío: 10°C
Humedad: 68%
Barómetro: 1018 hPa
Clouds: Parcialmente nuboso
Visibility: 10 km
Cloud details: Parcialmente nuboso 1036 m
2021/05/14 12:00 LECO 141200Z 20013KT 160V220 9999 SCT034 16/10 Q1018 NOSIG
LEVX - Vigo/Peinador, Spain
Distance from station: O 214km
Actualización: Fri, 14-May-2021 2:00pm CEST
Muy nuboso
Muy nuboso
 Viento del OSO
Viento: OSO 6 km/h
Temperatura: 15°C
Rocío: 9°C
Humedad: 68%
Barómetro: 1021 hPa
Clouds: Muy nuboso
Visibility: 10 km
Cloud details: Parcialmente nuboso 823 m
Muy nuboso 1006 m
2021/05/14 12:00 LEVX 141200Z 24003KT 160V300 9999 SCT027 BKN033 15/09 Q1021 NOSIG